sensor_id;sensor_type;location;lat;lon;timestamp;pressure;altitude;pressure_sealevel;temperature;humidity
70248;BME280;57641;51.416;5.506;2023-07-30T00:01:12;101046.78;;;21.68;52.65
70248;BME280;57641;51.416;5.506;2023-07-30T00:03:37;101050.09;;;21.70;52.84
70248;BME280;57641;51.416;5.506;2023-07-30T00:06:03;101056.59;;;21.69;52.91
70248;BME280;57641;51.416;5.506;2023-07-30T00:08:28;101053.44;;;21.72;52.55
70248;BME280;57641;51.416;5.506;2023-07-30T00:10:57;101057.41;;;21.70;52.21
70248;BME280;57641;51.416;5.506;2023-07-30T00:13:23;101052.50;;;21.60;52.99
70248;BME280;57641;51.416;5.506;2023-07-30T00:15:49;101046.84;;;21.62;52.97
70248;BME280;57641;51.416;5.506;2023-07-30T00:18:15;101050.59;;;21.61;53.63
70248;BME280;57641;51.416;5.506;2023-07-30T00:20:41;101045.25;;;21.47;53.67
70248;BME280;57641;51.416;5.506;2023-07-30T00:23:07;101044.91;;;21.37;53.99
70248;BME280;57641;51.416;5.506;2023-07-30T00:25:32;101047.47;;;21.32;54.38
70248;BME280;57641;51.416;5.506;2023-07-30T00:27:58;101043.53;;;21.28;54.37
70248;BME280;57641;51.416;5.506;2023-07-30T00:30:23;101052.72;;;21.27;54.33
70248;BME280;57641;51.416;5.506;2023-07-30T00:32:49;101050.44;;;21.24;54.34
70248;BME280;57641;51.416;5.506;2023-07-30T00:35:14;101051.31;;;21.18;54.29
70248;BME280;57641;51.416;5.506;2023-07-30T00:37:40;101055.53;;;21.14;54.29
70248;BME280;57641;51.416;5.506;2023-07-30T00:40:06;101061.53;;;21.16;54.32
70248;BME280;57641;51.416;5.506;2023-07-30T00:42:32;101063.41;;;21.16;55.12
70248;BME280;57641;51.416;5.506;2023-07-30T00:44:57;101058.00;;;21.16;54.42
70248;BME280;57641;51.416;5.506;2023-07-30T00:47:23;101055.50;;;21.07;54.15
70248;BME280;57641;51.416;5.506;2023-07-30T00:49:49;101068.53;;;20.92;54.53
70248;BME280;57641;51.416;5.506;2023-07-30T00:52:20;101064.88;;;21.12;53.90
70248;BME280;57641;51.416;5.506;2023-07-30T00:54:47;101066.19;;;21.02;53.90
70248;BME280;57641;51.416;5.506;2023-07-30T00:57:15;101081.84;;;20.94;53.90
70248;BME280;57641;51.416;5.506;2023-07-30T00:59:41;101069.78;;;20.90;54.10
70248;BME280;57641;51.416;5.506;2023-07-30T01:02:06;101069.78;;;20.90;54.31
70248;BME280;57641;51.416;5.506;2023-07-30T01:04:32;101070.44;;;20.85;54.87
70248;BME280;57641;51.416;5.506;2023-07-30T01:06:58;101072.47;;;20.90;54.00
70248;BME280;57641;51.416;5.506;2023-07-30T01:09:23;101070.59;;;20.90;53.90
70248;BME280;57641;51.416;5.506;2023-07-30T01:11:51;101069.31;;;20.99;54.48
70248;BME280;57641;51.416;5.506;2023-07-30T01:14:18;101072.66;;;21.01;54.06
70248;BME280;57641;51.416;5.506;2023-07-30T01:16:44;101087.06;;;20.89;54.07
70248;BME280;57641;51.416;5.506;2023-07-30T01:19:10;101083.09;;;20.98;54.12
70248;BME280;57641;51.416;5.506;2023-07-30T01:21:36;101088.91;;;21.01;54.59
70248;BME280;57641;51.416;5.506;2023-07-30T01:24:02;101091.19;;;21.04;54.59
70248;BME280;57641;51.416;5.506;2023-07-30T01:26:38;101083.94;;;20.98;54.64
70248;BME280;57641;51.416;5.506;2023-07-30T01:29:11;101091.25;;;20.91;54.64
70248;BME280;57641;51.416;5.506;2023-07-30T01:31:40;101088.72;;;20.96;54.72
70248;BME280;57641;51.416;5.506;2023-07-30T01:34:07;101095.00;;;20.90;54.44
70248;BME280;57641;51.416;5.506;2023-07-30T01:36:35;101096.03;;;20.89;54.61
70248;BME280;57641;51.416;5.506;2023-07-30T01:39:02;101100.13;;;20.54;55.29
70248;BME280;57641;51.416;5.506;2023-07-30T01:41:27;101108.19;;;20.80;54.77
70248;BME280;57641;51.416;5.506;2023-07-30T01:43:54;101103.91;;;20.40;55.24
70248;BME280;57641;51.416;5.506;2023-07-30T01:46:19;101113.69;;;20.47;55.38
70248;BME280;57641;51.416;5.506;2023-07-30T01:48:45;101107.59;;;20.65;54.76
70248;BME280;57641;51.416;5.506;2023-07-30T01:51:10;101108.72;;;20.38;55.50
70248;BME280;57641;51.416;5.506;2023-07-30T01:53:36;101110.97;;;20.54;55.82
70248;BME280;57641;51.416;5.506;2023-07-30T01:56:01;101103.88;;;20.53;55.14
70248;BME280;57641;51.416;5.506;2023-07-30T01:58:26;101110.94;;;20.67;55.57
70248;BME280;57641;51.416;5.506;2023-07-30T02:00:52;101111.75;;;20.74;55.19
70248;BME280;57641;51.416;5.506;2023-07-30T02:03:17;101111.56;;;20.62;55.16
70248;BME280;57641;51.416;5.506;2023-07-30T02:05:43;101112.44;;;20.56;55.49
70248;BME280;57641;51.416;5.506;2023-07-30T02:08:08;101107.59;;;20.65;55.35
70248;BME280;57641;51.416;5.506;2023-07-30T02:10:34;101109.94;;;20.42;55.88
70248;BME280;57641;51.416;5.506;2023-07-30T02:12:59;101109.34;;;20.40;55.70
70248;BME280;57641;51.416;5.506;2023-07-30T02:15:25;101110.19;;;20.40;56.28
70248;BME280;57641;51.416;5.506;2023-07-30T02:17:50;101106.41;;;20.21;56.59
70248;BME280;57641;51.416;5.506;2023-07-30T02:20:15;101097.84;;;20.51;56.02
70248;BME280;57641;51.416;5.506;2023-07-30T02:22:41;101100.78;;;20.43;56.28
70248;BME280;57641;51.416;5.506;2023-07-30T02:25:07;101092.06;;;20.41;56.58
70248;BME280;57641;51.416;5.506;2023-07-30T02:27:32;101088.28;;;20.48;56.55
70248;BME280;57641;51.416;5.506;2023-07-30T02:29:58;101092.25;;;20.46;56.50
70248;BME280;57641;51.416;5.506;2023-07-30T02:32:23;101099.50;;;20.52;56.44
70248;BME280;57641;51.416;5.506;2023-07-30T02:34:49;101090.97;;;20.55;56.37
70248;BME280;57641;51.416;5.506;2023-07-30T02:37:14;101094.09;;;20.52;56.65
70248;BME280;57641;51.416;5.506;2023-07-30T02:39:40;101097.63;;;20.59;56.64
70248;BME280;57641;51.416;5.506;2023-07-30T02:42:06;101094.94;;;20.26;57.49
70248;BME280;57641;51.416;5.506;2023-07-30T02:44:32;101089.72;;;20.51;56.46
70248;BME280;57641;51.416;5.506;2023-07-30T02:46:57;101088.66;;;20.52;56.33
70248;BME280;57641;51.416;5.506;2023-07-30T02:49:23;101091.19;;;20.47;56.66
70248;BME280;57641;51.416;5.506;2023-07-30T02:51:48;101099.53;;;20.45;56.71
70248;BME280;57641;51.416;5.506;2023-07-30T02:54:14;101091.41;;;20.39;56.98
70248;BME280;57641;51.416;5.506;2023-07-30T02:56:46;101102.84;;;20.47;56.87
70248;BME280;57641;51.416;5.506;2023-07-30T02:59:11;101102.84;;;20.54;56.82
70248;BME280;57641;51.416;5.506;2023-07-30T03:01:37;101100.75;;;20.56;57.04
70248;BME280;57641;51.416;5.506;2023-07-30T03:04:03;101110.78;;;20.22;57.35
70248;BME280;57641;51.416;5.506;2023-07-30T03:06:29;101113.69;;;20.28;57.71
70248;BME280;57641;51.416;5.506;2023-07-30T03:08:54;101112.25;;;20.32;57.65
70248;BME280;57641;51.416;5.506;2023-07-30T03:11:21;101103.28;;;20.51;57.10
70248;BME280;57641;51.416;5.506;2023-07-30T03:13:47;101110.56;;;20.44;57.49
70248;BME280;57641;51.416;5.506;2023-07-30T03:16:12;101107.22;;;20.48;57.37
70248;BME280;57641;51.416;5.506;2023-07-30T03:18:38;101109.09;;;20.54;57.40
70248;BME280;57641;51.416;5.506;2023-07-30T03:21:03;101116.00;;;20.24;57.95
70248;BME280;57641;51.416;5.506;2023-07-30T03:23:29;101115.34;;;20.55;57.30
70248;BME280;57641;51.416;5.506;2023-07-30T03:25:54;101108.50;;;20.46;57.22
70248;BME280;57641;51.416;5.506;2023-07-30T03:28:20;101105.16;;;20.37;58.01
70248;BME280;57641;51.416;5.506;2023-07-30T03:30:45;101107.00;;;20.56;57.17
70248;BME280;57641;51.416;5.506;2023-07-30T03:33:11;101102.00;;;20.60;57.00
70248;BME280;57641;51.416;5.506;2023-07-30T03:35:36;101117.41;;;20.59;57.50
70248;BME280;57641;51.416;5.506;2023-07-30T03:38:02;101104.91;;;20.65;57.43
70248;BME280;57641;51.416;5.506;2023-07-30T03:40:28;101117.88;;;20.43;57.54
70248;BME280;57641;51.416;5.506;2023-07-30T03:42:54;101123.66;;;20.60;57.20
70248;BME280;57641;51.416;5.506;2023-07-30T03:45:19;101119.50;;;20.57;57.00
70248;BME280;57641;51.416;5.506;2023-07-30T03:47:45;101122.41;;;20.62;57.84
70248;BME280;57641;51.416;5.506;2023-07-30T03:50:10;101120.75;;;20.61;57.36
70248;BME280;57641;51.416;5.506;2023-07-30T03:52:36;101118.19;;;20.80;57.39
70248;BME280;57641;51.416;5.506;2023-07-30T03:55:01;101123.50;;;20.29;58.66
70248;BME280;57641;51.416;5.506;2023-07-30T03:57:27;101124.56;;;20.34;58.04
70248;BME280;57641;51.416;5.506;2023-07-30T03:59:52;101133.06;;;20.31;58.50
70248;BME280;57641;51.416;5.506;2023-07-30T04:02:18;101140.56;;;20.62;58.22
70248;BME280;57641;51.416;5.506;2023-07-30T04:04:43;101137.81;;;20.69;57.55
70248;BME280;57641;51.416;5.506;2023-07-30T04:07:10;101135.53;;;20.59;58.01
70248;BME280;57641;51.416;5.506;2023-07-30T04:09:36;101136.00;;;20.36;58.64
70248;BME280;57641;51.416;5.506;2023-07-30T04:12:02;101142.63;;;20.47;59.00
70248;BME280;57641;51.416;5.506;2023-07-30T04:14:27;101135.78;;;20.18;59.50
70248;BME280;57641;51.416;5.506;2023-07-30T04:16:52;101129.72;;;20.49;58.72
70248;BME280;57641;51.416;5.506;2023-07-30T04:19:18;101137.41;;;20.58;58.68
70248;BME280;57641;51.416;5.506;2023-07-30T04:21:43;101132.44;;;20.55;58.03
70248;BME280;57641;51.416;5.506;2023-07-30T04:24:09;101128.63;;;20.70;57.88
70248;BME280;57641;51.416;5.506;2023-07-30T04:26:34;101134.44;;;20.80;58.13
70248;BME280;57641;51.416;5.506;2023-07-30T04:29:00;101131.50;;;20.88;57.63
70248;BME280;57641;51.416;5.506;2023-07-30T04:31:25;101140.09;;;20.72;58.07
70248;BME280;57641;51.416;5.506;2023-07-30T04:33:51;101142.81;;;20.72;58.20
70248;BME280;57641;51.416;5.506;2023-07-30T04:36:16;101142.63;;;20.67;58.32
70248;BME280;57641;51.416;5.506;2023-07-30T04:38:41;101126.19;;;20.42;59.29
70248;BME280;57641;51.416;5.506;2023-07-30T04:41:07;101128.00;;;20.67;58.52
70248;BME280;57641;51.416;5.506;2023-07-30T04:43:33;101127.81;;;20.62;58.32
70248;BME280;57641;51.416;5.506;2023-07-30T04:45:58;101131.94;;;20.78;58.47
70248;BME280;57641;51.416;5.506;2023-07-30T04:48:24;101132.94;;;20.90;58.01
70248;BME280;57641;51.416;5.506;2023-07-30T04:50:49;101136.31;;;20.86;57.96
70248;BME280;57641;51.416;5.506;2023-07-30T04:53:14;101135.28;;;20.87;58.33
70248;BME280;57641;51.416;5.506;2023-07-30T04:55:42;101132.19;;;20.77;58.34
70248;BME280;57641;51.416;5.506;2023-07-30T04:58:07;101133.47;;;20.54;59.07
70248;BME280;57641;51.416;5.506;2023-07-30T05:00:33;101134.50;;;20.67;58.70
70248;BME280;57641;51.416;5.506;2023-07-30T05:02:58;101137.16;;;20.73;58.70
70248;BME280;57641;51.416;5.506;2023-07-30T05:05:24;101130.88;;;20.86;58.23
70248;BME280;57641;51.416;5.506;2023-07-30T05:07:50;101138.28;;;20.39;59.69
70248;BME280;57641;51.416;5.506;2023-07-30T05:10:15;101149.06;;;20.72;58.92
70248;BME280;57641;51.416;5.506;2023-07-30T05:12:41;101150.50;;;20.81;58.78
70248;BME280;57641;51.416;5.506;2023-07-30T05:15:07;101149.88;;;20.79;59.15
70248;BME280;57641;51.416;5.506;2023-07-30T05:17:33;101154.81;;;20.95;58.45
70248;BME280;57641;51.416;5.506;2023-07-30T05:19:58;101158.63;;;20.75;59.08
70248;BME280;57641;51.416;5.506;2023-07-30T05:22:24;101166.13;;;20.86;58.98
70248;BME280;57641;51.416;5.506;2023-07-30T05:24:51;101162.13;;;20.95;58.27
70248;BME280;57641;51.416;5.506;2023-07-30T05:27:16;101167.59;;;20.88;58.77
70248;BME280;57641;51.416;5.506;2023-07-30T05:29:42;101173.03;;;20.75;59.28
70248;BME280;57641;51.416;5.506;2023-07-30T05:32:09;101172.13;;;21.01;58.83
70248;BME280;57641;51.416;5.506;2023-07-30T05:34:34;101166.69;;;21.01;59.38
70248;BME280;57641;51.416;5.506;2023-07-30T05:37:00;101168.56;;;21.00;59.16
70248;BME280;57641;51.416;5.506;2023-07-30T05:39:26;101162.56;;;20.98;59.08
70248;BME280;57641;51.416;5.506;2023-07-30T05:41:52;101151.72;;;20.85;59.52
70248;BME280;57641;51.416;5.506;2023-07-30T05:44:17;101165.69;;;20.89;59.06
70248;BME280;57641;51.416;5.506;2023-07-30T05:46:43;101150.56;;;20.55;59.98
70248;BME280;57641;51.416;5.506;2023-07-30T05:49:08;101158.75;;;20.99;59.01
70248;BME280;57641;51.416;5.506;2023-07-30T05:51:34;101156.75;;;20.88;59.28
70248;BME280;57641;51.416;5.506;2023-07-30T05:53:59;101147.06;;;21.12;59.19
70248;BME280;57641;51.416;5.506;2023-07-30T05:56:25;101150.59;;;21.13;58.87
70248;BME280;57641;51.416;5.506;2023-07-30T05:58:50;101158.94;;;21.04;59.30
70248;BME280;57641;51.416;5.506;2023-07-30T06:01:15;101165.50;;;20.84;59.80
70248;BME280;57641;51.416;5.506;2023-07-30T06:03:41;101163.16;;;21.00;58.91
70248;BME280;57641;51.416;5.506;2023-07-30T06:06:06;101161.88;;;21.10;59.33
70248;BME280;57641;51.416;5.506;2023-07-30T06:08:32;101161.84;;;21.23;58.61
70248;BME280;57641;51.416;5.506;2023-07-30T06:11:02;101160.97;;;21.35;58.67
70248;BME280;57641;51.416;5.506;2023-07-30T06:13:31;101165.41;;;21.10;59.72
70248;BME280;57641;51.416;5.506;2023-07-30T06:15:56;101167.44;;;21.34;58.70
70248;BME280;57641;51.416;5.506;2023-07-30T06:18:22;101160.59;;;21.25;58.90
70248;BME280;57641;51.416;5.506;2023-07-30T06:20:47;101161.56;;;21.37;58.87
70248;BME280;57641;51.416;5.506;2023-07-30T06:23:13;101165.94;;;21.38;58.38
70248;BME280;57641;51.416;5.506;2023-07-30T06:25:38;101168.47;;;21.33;58.61
70248;BME280;57641;51.416;5.506;2023-07-30T06:28:07;101171.66;;;21.11;59.13
70248;BME280;57641;51.416;5.506;2023-07-30T06:30:32;101171.25;;;21.14;59.19
70248;BME280;57641;51.416;5.506;2023-07-30T06:32:58;101171.66;;;21.24;58.71
70248;BME280;57641;51.416;5.506;2023-07-30T06:35:23;101173.84;;;21.46;58.47
70248;BME280;57641;51.416;5.506;2023-07-30T06:37:50;101176.22;;;21.30;58.63
70248;BME280;57641;51.416;5.506;2023-07-30T06:40:16;101171.31;;;21.52;58.14
70248;BME280;57641;51.416;5.506;2023-07-30T06:42:42;101182.44;;;21.37;58.13
70248;BME280;57641;51.416;5.506;2023-07-30T06:45:08;101181.88;;;21.22;59.35
70248;BME280;57641;51.416;5.506;2023-07-30T06:47:33;101182.06;;;21.27;58.68
70248;BME280;57641;51.416;5.506;2023-07-30T06:49:59;101182.28;;;21.25;59.00
70248;BME280;57641;51.416;5.506;2023-07-30T06:52:24;101171.81;;;21.35;59.11
70248;BME280;57641;51.416;5.506;2023-07-30T06:54:50;101170.53;;;21.38;58.79
70248;BME280;57641;51.416;5.506;2023-07-30T06:57:16;101176.69;;;21.58;58.69
70248;BME280;57641;51.416;5.506;2023-07-30T06:59:41;101177.94;;;21.62;57.81
70248;BME280;57641;51.416;5.506;2023-07-30T07:02:07;101172.25;;;21.70;58.04
70248;BME280;57641;51.416;5.506;2023-07-30T07:04:32;101177.03;;;21.68;58.62
70248;BME280;57641;51.416;5.506;2023-07-30T07:06:58;101169.84;;;21.87;58.14
70248;BME280;57641;51.416;5.506;2023-07-30T07:09:23;101183.25;;;21.75;58.11
70248;BME280;57641;51.416;5.506;2023-07-30T07:11:49;101185.94;;;21.82;57.40
70248;BME280;57641;51.416;5.506;2023-07-30T07:14:14;101194.69;;;21.84;57.50
70248;BME280;57641;51.416;5.506;2023-07-30T07:16:40;101202.78;;;21.90;57.08
70248;BME280;57641;51.416;5.506;2023-07-30T07:19:05;101201.41;;;21.81;57.91
70248;BME280;57641;51.416;5.506;2023-07-30T07:21:31;101190.69;;;21.55;58.54
70248;BME280;57641;51.416;5.506;2023-07-30T07:23:56;101195.69;;;21.58;58.41
70248;BME280;57641;51.416;5.506;2023-07-30T07:26:22;101198.19;;;21.60;58.53
70248;BME280;57641;51.416;5.506;2023-07-30T07:28:47;101191.31;;;21.57;58.38
70248;BME280;57641;51.416;5.506;2023-07-30T07:31:13;101189.97;;;21.73;57.68
70248;BME280;57641;51.416;5.506;2023-07-30T07:33:39;101193.63;;;21.85;57.98
70248;BME280;57641;51.416;5.506;2023-07-30T07:38:32;101195.13;;;21.81;57.94
70248;BME280;57641;51.416;5.506;2023-07-30T07:40:58;101201.53;;;21.93;57.48
70248;BME280;57641;51.416;5.506;2023-07-30T07:43:24;101194.31;;;22.12;57.64
70248;BME280;57641;51.416;5.506;2023-07-30T07:45:50;101186.66;;;22.02;57.28
70248;BME280;57641;51.416;5.506;2023-07-30T07:48:15;101201.19;;;21.83;56.64
70248;BME280;57641;51.416;5.506;2023-07-30T07:50:41;101205.47;;;21.66;57.94
70248;BME280;57641;51.416;5.506;2023-07-30T07:53:06;101203.25;;;21.87;57.38
70248;BME280;57641;51.416;5.506;2023-07-30T07:55:32;101207.34;;;21.65;57.57
70248;BME280;57641;51.416;5.506;2023-07-30T07:57:58;101204.47;;;21.98;57.14
70248;BME280;57641;51.416;5.506;2023-07-30T08:00:24;101198.81;;;21.93;56.96
70248;BME280;57641;51.416;5.506;2023-07-30T08:02:49;101214.63;;;22.09;56.55
70248;BME280;57641;51.416;5.506;2023-07-30T08:05:15;101209.59;;;21.68;56.92
70248;BME280;57641;51.416;5.506;2023-07-30T08:07:41;101196.22;;;21.73;56.32
70248;BME280;57641;51.416;5.506;2023-07-30T08:10:07;101197.25;;;22.10;55.83
70248;BME280;57641;51.416;5.506;2023-07-30T08:12:32;101189.38;;;22.02;56.05
70248;BME280;57641;51.416;5.506;2023-07-30T08:14:58;101198.28;;;22.41;55.74
70248;BME280;57641;51.416;5.506;2023-07-30T08:17:25;101198.97;;;22.54;55.33
70248;BME280;57641;51.416;5.506;2023-07-30T08:19:50;101210.31;;;21.95;55.19
70248;BME280;57641;51.416;5.506;2023-07-30T08:22:17;101216.06;;;22.61;55.38
70248;BME280;57641;51.416;5.506;2023-07-30T08:24:42;101210.78;;;22.17;55.51
70248;BME280;57641;51.416;5.506;2023-07-30T08:27:08;101219.44;;;22.32;55.05
70248;BME280;57641;51.416;5.506;2023-07-30T08:29:33;101222.59;;;22.29;55.00
70248;BME280;57641;51.416;5.506;2023-07-30T08:31:59;101226.88;;;22.43;54.30
70248;BME280;57641;51.416;5.506;2023-07-30T08:34:25;101215.41;;;22.41;55.32
70248;BME280;57641;51.416;5.506;2023-07-30T08:36:50;101222.06;;;22.45;54.75
70248;BME280;57641;51.416;5.506;2023-07-30T08:39:15;101208.91;;;22.67;54.51
70248;BME280;57641;51.416;5.506;2023-07-30T08:41:41;101217.16;;;22.54;54.22
70248;BME280;57641;51.416;5.506;2023-07-30T08:44:07;101218.28;;;22.46;54.34
70248;BME280;57641;51.416;5.506;2023-07-30T08:46:34;101208.88;;;22.73;54.63
70248;BME280;57641;51.416;5.506;2023-07-30T08:48:59;101207.16;;;22.97;54.24
70248;BME280;57641;51.416;5.506;2023-07-30T08:51:26;101217.19;;;22.79;53.18
70248;BME280;57641;51.416;5.506;2023-07-30T08:53:52;101219.75;;;22.73;53.89
70248;BME280;57641;51.416;5.506;2023-07-30T08:56:18;101209.75;;;22.67;53.61
70248;BME280;57641;51.416;5.506;2023-07-30T08:58:44;101221.44;;;22.93;53.88
70248;BME280;57641;51.416;5.506;2023-07-30T09:01:12;101210.31;;;22.51;53.18
70248;BME280;57641;51.416;5.506;2023-07-30T09:03:40;101212.13;;;22.82;53.13
70248;BME280;57641;51.416;5.506;2023-07-30T09:06:06;101209.66;;;22.99;52.52
70248;BME280;57641;51.416;5.506;2023-07-30T09:08:32;101202.53;;;22.55;52.50
70248;BME280;57641;51.416;5.506;2023-07-30T09:11:11;101204.97;;;22.88;52.17
70248;BME280;57641;51.416;5.506;2023-07-30T09:13:41;101199.16;;;23.21;52.74
70248;BME280;57641;51.416;5.506;2023-07-30T09:16:11;101208.59;;;23.36;53.00
70248;BME280;57641;51.416;5.506;2023-07-30T09:18:46;101202.44;;;23.41;51.98
70248;BME280;57641;51.416;5.506;2023-07-30T09:21:14;101200.28;;;23.13;51.97
70248;BME280;57641;51.416;5.506;2023-07-30T09:23:41;101200.56;;;23.41;51.27
70248;BME280;57641;51.416;5.506;2023-07-30T09:26:07;101206.84;;;23.24;50.39
70248;BME280;57641;51.416;5.506;2023-07-30T09:28:33;101206.47;;;23.02;50.61
70248;BME280;57641;51.416;5.506;2023-07-30T09:31:03;101214.47;;;22.97;49.95
70248;BME280;57641;51.416;5.506;2023-07-30T09:33:31;101216.72;;;22.82;50.93
70248;BME280;57641;51.416;5.506;2023-07-30T09:35:56;101219.59;;;22.87;51.11
70248;BME280;57641;51.416;5.506;2023-07-30T09:38:22;101218.09;;;23.09;50.16
70248;BME280;57641;51.416;5.506;2023-07-30T09:40:48;101217.72;;;22.87;51.43
70248;BME280;57641;51.416;5.506;2023-07-30T09:43:15;101214.63;;;23.02;51.22
70248;BME280;57641;51.416;5.506;2023-07-30T09:45:44;101223.09;;;23.30;50.79
70248;BME280;57641;51.416;5.506;2023-07-30T09:48:12;101219.22;;;23.38;51.35
70248;BME280;57641;51.416;5.506;2023-07-30T09:50:39;101211.31;;;23.84;50.30
70248;BME280;57641;51.416;5.506;2023-07-30T09:53:05;101220.97;;;23.50;49.96
70248;BME280;57641;51.416;5.506;2023-07-30T09:55:30;101224.81;;;23.61;49.50
70248;BME280;57641;51.416;5.506;2023-07-30T09:57:56;101211.31;;;23.84;49.10
70248;BME280;57641;51.416;5.506;2023-07-30T10:00:22;101222.09;;;23.91;50.20
70248;BME280;57641;51.416;5.506;2023-07-30T10:02:49;101222.22;;;23.84;49.59
70248;BME280;57641;51.416;5.506;2023-07-30T10:05:20;101218.31;;;23.44;50.35
70248;BME280;57641;51.416;5.506;2023-07-30T10:08:05;101220.31;;;23.37;49.42
70248;BME280;57641;51.416;5.506;2023-07-30T10:10:34;101224.25;;;23.71;49.23
70248;BME280;57641;51.416;5.506;2023-07-30T10:13:03;101234.88;;;23.90;47.69
70248;BME280;57641;51.416;5.506;2023-07-30T10:15:34;101232.16;;;23.90;48.17
70248;BME280;57641;51.416;5.506;2023-07-30T10:18:00;101225.34;;;23.99;49.26
70248;BME280;57641;51.416;5.506;2023-07-30T10:20:27;101216.28;;;24.29;48.34
70248;BME280;57641;51.416;5.506;2023-07-30T10:22:56;101236.47;;;23.68;48.20
70248;BME280;57641;51.416;5.506;2023-07-30T10:25:27;101231.91;;;23.92;47.36
70248;BME280;57641;51.416;5.506;2023-07-30T10:27:53;101230.97;;;24.28;47.70
70248;BME280;57641;51.416;5.506;2023-07-30T10:30:19;101242.63;;;24.35;46.08
70248;BME280;57641;51.416;5.506;2023-07-30T10:35:42;101243.81;;;24.39;46.33
70248;BME280;57641;51.416;5.506;2023-07-30T10:38:22;101240.50;;;24.72;46.76
70248;BME280;57641;51.416;5.506;2023-07-30T10:43:37;101247.31;;;24.28;46.06
70248;BME280;57641;51.416;5.506;2023-07-30T10:46:04;101250.91;;;24.40;45.87
70248;BME280;57641;51.416;5.506;2023-07-30T10:48:40;101245.97;;;24.72;46.05
70248;BME280;57641;51.416;5.506;2023-07-30T10:51:08;101256.72;;;24.44;45.20
70248;BME280;57641;51.416;5.506;2023-07-30T10:53:34;101258.56;;;24.20;45.67
70248;BME280;57641;51.416;5.506;2023-07-30T10:56:06;101256.28;;;24.47;45.41
70248;BME280;57641;51.416;5.506;2023-07-30T10:58:33;101242.34;;;24.25;45.87
70248;BME280;57641;51.416;5.506;2023-07-30T11:01:02;101249.75;;;24.71;45.92
70248;BME280;57641;51.416;5.506;2023-07-30T11:03:28;101243.34;;;24.54;43.50
70248;BME280;57641;51.416;5.506;2023-07-30T11:05:55;101248.34;;;24.68;44.29
70248;BME280;57641;51.416;5.506;2023-07-30T11:08:41;101257.41;;;24.27;45.04
70248;BME280;57641;51.416;5.506;2023-07-30T11:11:10;101250.22;;;24.56;45.40
70248;BME280;57641;51.416;5.506;2023-07-30T11:13:37;101244.56;;;24.93;44.59
70248;BME280;57641;51.416;5.506;2023-07-30T11:16:05;101258.88;;;24.76;43.99
70248;BME280;57641;51.416;5.506;2023-07-30T11:18:32;101252.75;;;25.04;44.11
70248;BME280;57641;51.416;5.506;2023-07-30T11:21:05;101257.38;;;25.15;44.40
70248;BME280;57641;51.416;5.506;2023-07-30T11:23:31;101260.31;;;24.67;44.48
70248;BME280;57641;51.416;5.506;2023-07-30T11:25:56;101256.50;;;24.45;44.02
70248;BME280;57641;51.416;5.506;2023-07-30T11:28:35;101261.53;;;24.95;44.63
70248;BME280;57641;51.416;5.506;2023-07-30T11:31:18;101259.25;;;24.80;44.03
70248;BME280;57641;51.416;5.506;2023-07-30T11:33:48;101259.59;;;25.18;44.21
70248;BME280;57641;51.416;5.506;2023-07-30T11:36:16;101248.47;;;25.20;43.88
70248;BME280;57641;51.416;5.506;2023-07-30T11:38:43;101276.69;;;24.91;42.93
70248;BME280;57641;51.416;5.506;2023-07-30T11:41:10;101264.13;;;25.24;41.74
70248;BME280;57641;51.416;5.506;2023-07-30T11:43:42;101259.00;;;24.58;41.51
70248;BME280;57641;51.416;5.506;2023-07-30T11:48:34;101273.81;;;24.86;40.94
70248;BME280;57641;51.416;5.506;2023-07-30T11:51:01;101288.44;;;24.91;41.33
70248;BME280;57641;51.416;5.506;2023-07-30T11:53:45;101290.75;;;24.64;45.85
70248;BME280;57641;51.416;5.506;2023-07-30T11:56:20;101289.94;;;24.52;46.68
70248;BME280;57641;51.416;5.506;2023-07-30T11:58:48;101288.69;;;24.25;46.79
70248;BME280;57641;51.416;5.506;2023-07-30T12:01:17;101299.06;;;24.16;47.80
70248;BME280;57641;51.416;5.506;2023-07-30T12:03:43;101291.94;;;24.15;48.15
70248;BME280;57641;51.416;5.506;2023-07-30T12:06:10;101286.28;;;24.70;48.09
70248;BME280;57641;51.416;5.506;2023-07-30T12:08:36;101280.38;;;24.96;45.04
70248;BME280;57641;51.416;5.506;2023-07-30T12:11:03;101282.59;;;24.64;44.55
70248;BME280;57641;51.416;5.506;2023-07-30T12:13:30;101287.63;;;25.02;45.03
70248;BME280;57641;51.416;5.506;2023-07-30T12:15:56;101288.69;;;25.01;42.51
70248;BME280;57641;51.416;5.506;2023-07-30T12:18:23;101288.22;;;25.04;41.94
70248;BME280;57641;51.416;5.506;2023-07-30T12:20:50;101289.38;;;24.85;43.04
70248;BME280;57641;51.416;5.506;2023-07-30T12:23:16;101305.16;;;24.83;44.02
70248;BME280;57641;51.416;5.506;2023-07-30T12:25:43;101310.63;;;24.12;44.23
70248;BME280;57641;51.416;5.506;2023-07-30T12:28:08;101318.19;;;24.28;46.04
70248;BME280;57641;51.416;5.506;2023-07-30T12:30:34;101315.72;;;24.26;46.49
70248;BME280;57641;51.416;5.506;2023-07-30T12:33:01;101323.50;;;24.23;47.10
70248;BME280;57641;51.416;5.506;2023-07-30T12:35:27;101325.78;;;24.37;48.26
70248;BME280;57641;51.416;5.506;2023-07-30T12:37:52;101328.16;;;24.34;47.68
70248;BME280;57641;51.416;5.506;2023-07-30T12:40:18;101324.38;;;24.05;45.28
70248;BME280;57641;51.416;5.506;2023-07-30T12:42:43;101319.63;;;24.12;46.57
70248;BME280;57641;51.416;5.506;2023-07-30T12:45:09;101306.47;;;24.39;47.72
70248;BME280;57641;51.416;5.506;2023-07-30T12:47:35;101306.28;;;24.52;45.90
70248;BME280;57641;51.416;5.506;2023-07-30T12:50:03;101311.09;;;24.92;45.24
70248;BME280;57641;51.416;5.506;2023-07-30T12:52:29;101304.91;;;24.73;42.86
70248;BME280;57641;51.416;5.506;2023-07-30T12:54:54;101303.75;;;25.27;44.72
70248;BME280;57641;51.416;5.506;2023-07-30T12:57:20;101306.09;;;25.47;42.98